Time;durP1;ratioP1;P1;durP2;ratioP2;P2;SDS_P1;SDS_P2;PMS_P1;PMS_P2;Temp;Humidity;BMP_temperature;BMP_pressure;BME280_temperature;BME280_humidity;BME280_pressure;Samples;Min_cycle;Max_cycle;Signal;HPM_P1;HPM_P2
2023/01/26 00:01:20;;;;;;;25.85;10.73;;;;;;;-0.70;96.12;96684.22;5031024;28;20049;-80
2023/01/26 00:03:46;;;;;;;28.15;11.27;;;;;;;-0.67;95.94;96683.75;5039779;28;20068;-78
2023/01/26 00:06:14;;;;;;;32.15;11.27;;;;;;;-0.74;95.91;96672.38;5031254;28;20072;-78
2023/01/26 00:08:43;;;;;;;27.27;11.75;;;;;;;-0.83;95.36;96674.63;5032151;28;20094;-81
2023/01/26 00:11:13;;;;;;;29.67;11.98;;;;;;;-0.76;94.99;96671.81;5034065;28;20048;-80
2023/01/26 00:13:39;;;;;;;26.83;11.00;;;;;;;-0.73;94.22;96668.63;5031575;28;20047;-80
2023/01/26 00:16:09;;;;;;;29.58;10.27;;;;;;;-0.73;94.10;96664.13;5039499;28;20037;-78
2023/01/26 00:18:38;;;;;;;24.75;10.32;;;;;;;-0.75;94.02;96660.06;5036952;28;20136;-80
2023/01/26 00:21:05;;;;;;;23.15;9.60;;;;;;;-0.74;94.01;96654.47;5039434;28;20072;-82
2023/01/26 00:23:33;;;;;;;25.67;10.35;;;;;;;-0.80;93.78;96653.56;5032517;28;20064;-80
2023/01/26 00:26:00;;;;;;;23.10;9.13;;;;;;;-0.78;93.58;96656.00;5037384;28;20041;-77
2023/01/26 00:28:27;;;;;;;24.77;10.20;;;;;;;-0.80;93.54;96648.19;5030914;28;20057;-79
2023/01/26 00:31:01;;;;;;;26.70;9.80;;;;;;;-0.91;93.63;96646.38;5033036;28;20545;-83
2023/01/26 00:33:29;;;;;;;29.63;10.63;;;;;;;-0.98;94.09;96644.91;5035400;28;20505;-78
2023/01/26 00:35:57;;;;;;;29.90;11.15;;;;;;;-1.15;95.17;96642.16;5034874;28;20049;-83
2023/01/26 00:38:23;;;;;;;33.15;11.73;;;;;;;-1.05;95.71;96642.34;5039717;28;20068;-80
2023/01/26 00:40:50;;;;;;;27.27;10.88;;;;;;;-0.98;95.48;96640.38;5041086;28;20064;-79
2023/01/26 00:43:16;;;;;;;31.23;11.90;;;;;;;-0.91;95.34;96635.69;5039691;28;20052;-80
2023/01/26 00:45:44;;;;;;;27.98;10.38;;;;;;;-0.85;95.44;96634.75;5032051;28;20048;-83
2023/01/26 00:48:10;;;;;;;27.92;11.40;;;;;;;-0.81;95.22;96635.88;5038090;28;20056;-80
2023/01/26 00:50:37;;;;;;;32.83;11.52;;;;;;;-0.93;95.44;96640.47;5030573;28;20045;-78
2023/01/26 00:53:04;;;;;;;32.20;11.98;;;;;;;-1.13;96.28;96632.88;5028320;28;20045;-82
2023/01/26 00:55:31;;;;;;;28.05;10.95;;;;;;;-1.02;96.60;96633.06;5030283;28;20056;-80
2023/01/26 00:57:58;;;;;;;30.75;11.13;;;;;;;-1.00;96.22;96631.78;5034183;28;20041;-83
2023/01/26 01:00:25;;;;;;;31.90;12.30;;;;;;;-0.95;96.04;96633.72;5030298;28;20087;-78
2023/01/26 01:02:51;;;;;;;33.58;11.75;;;;;;;-0.92;95.95;96633.28;5030714;28;20044;-79
2023/01/26 01:05:18;;;;;;;29.35;10.75;;;;;;;-0.92;95.62;96618.03;5031166;28;20049;-78
2023/01/26 01:07:45;;;;;;;27.80;11.32;;;;;;;-1.25;94.51;96623.25;5039924;28;20053;-78
2023/01/26 01:10:12;;;;;;;31.38;11.70;;;;;;;-1.39;94.93;96620.84;5033248;28;20048;-81
2023/01/26 01:12:39;;;;;;;27.73;11.10;;;;;;;-1.23;94.64;96631.84;5031964;28;20053;-80
2023/01/26 01:15:07;;;;;;;31.35;11.73;;;;;;;-1.13;94.35;96626.72;5032135;28;20049;-79
2023/01/26 01:17:35;;;;;;;26.67;9.70;;;;;;;-1.06;93.82;96628.19;5037224;28;20111;-79
2023/01/26 01:20:02;;;;;;;30.27;11.48;;;;;;;-1.03;93.78;96634.94;5034772;28;20049;-83
2023/01/26 01:22:28;;;;;;;32.55;11.70;;;;;;;-1.07;93.69;96629.25;5031008;28;20046;-81
2023/01/26 01:24:55;;;;;;;30.92;12.40;;;;;;;-1.03;94.17;96631.44;5034995;28;20053;-78
2023/01/26 01:27:22;;;;;;;32.92;11.88;;;;;;;-1.00;94.14;96633.63;5032626;28;20050;-77
2023/01/26 01:29:49;;;;;;;33.10;11.25;;;;;;;-0.95;94.61;96623.03;5034820;28;20052;-83
2023/01/26 01:32:16;;;;;;;33.65;12.30;;;;;;;-0.89;94.57;96622.91;5036443;28;20472;-82
2023/01/26 01:34:42;;;;;;;35.03;13.18;;;;;;;-0.89;94.70;96628.28;5037320;28;20049;-82
2023/01/26 01:37:09;;;;;;;33.58;12.20;;;;;;;-0.81;95.17;96624.38;5031040;28;20041;-77
2023/01/26 01:39:35;;;;;;;37.25;12.68;;;;;;;-0.77;95.24;96624.72;5031264;28;20057;-80
2023/01/26 01:42:02;;;;;;;29.80;12.15;;;;;;;-0.90;95.27;96626.63;5034145;28;20045;-84
2023/01/26 01:44:30;;;;;;;35.42;12.85;;;;;;;-0.88;95.05;96629.88;5032753;28;20057;-82
2023/01/26 01:46:58;;;;;;;30.15;11.05;;;;;;;-0.85;94.62;96620.56;5034493;28;20049;-82
2023/01/26 01:49:28;;;;;;;31.45;10.73;;;;;;;-0.85;94.52;96618.69;5031960;28;20049;-81
2023/01/26 01:51:59;;;;;;;29.98;11.90;;;;;;;-1.08;93.85;96621.47;5032248;28;20266;-83
2023/01/26 01:54:32;;;;;;;27.83;11.00;;;;;;;-1.13;94.21;96621.38;5030940;28;20057;-79
2023/01/26 01:57:05;;;;;;;32.50;11.17;;;;;;;-1.12;94.17;96612.28;5036553;28;20045;-80
2023/01/26 01:59:33;;;;;;;30.40;10.70;;;;;;;-1.08;94.09;96618.81;5035149;28;20045;-82
2023/01/26 02:02:00;;;;;;;28.90;10.13;;;;;;;-1.01;93.93;96611.44;5035058;28;20041;-81
2023/01/26 02:04:27;;;;;;;26.45;10.73;;;;;;;-0.92;93.66;96622.56;5034721;28;20546;-79
2023/01/26 02:06:58;;;;;;;27.30;10.23;;;;;;;-0.85;93.38;96618.69;5033280;28;20045;-77
2023/01/26 02:12:17;;;;;;;28.77;10.75;;;;;;;-0.85;92.51;96608.00;5036438;28;20064;-77
2023/01/26 02:14:46;;;;;;;24.95;8.73;;;;;;;-0.80;92.67;96605.41;5038513;28;20044;-79
2023/01/26 02:17:12;;;;;;;30.23;10.38;;;;;;;-0.80;92.34;96608.09;5033009;28;20049;-80
2023/01/26 02:19:49;;;;;;;29.10;11.00;;;;;;;-0.82;92.22;96602.19;5033557;28;20045;-78
2023/01/26 02:22:25;;;;;;;30.35;11.60;;;;;;;-0.89;92.12;96600.69;5045300;28;20493;-80
2023/01/26 02:24:55;;;;;;;27.55;10.57;;;;;;;-1.09;92.13;96598.47;5033421;28;20316;-79
2023/01/26 02:27:23;;;;;;;25.90;10.35;;;;;;;-1.10;92.49;96591.47;5032982;28;20044;-77
2023/01/26 02:29:50;;;;;;;28.92;11.27;;;;;;;-1.00;92.31;96593.53;5033508;28;20064;-78
2023/01/26 02:32:17;;;;;;;32.05;11.88;;;;;;;-1.09;92.26;96585.91;5035233;28;20060;-79
2023/01/26 02:34:43;;;;;;;27.95;10.73;;;;;;;-1.02;92.25;96575.06;5033271;28;20052;-79
2023/01/26 02:37:14;;;;;;;31.83;11.45;;;;;;;-0.96;92.15;96578.66;5032659;28;20079;-79
2023/01/26 02:39:49;;;;;;;29.85;10.23;;;;;;;-0.95;92.35;96573.06;5033465;28;20045;-78
2023/01/26 02:45:01;;;;;;;30.15;10.27;;;;;;;-0.93;93.12;96562.16;5040887;28;20051;-79
2023/01/26 02:47:28;;;;;;;30.83;11.80;;;;;;;-0.92;93.14;96561.91;5032455;28;20038;-77
2023/01/26 02:49:53;;;;;;;29.42;11.35;;;;;;;-0.93;93.07;96560.28;5033502;28;20056;-78
2023/01/26 02:52:22;;;;;;;31.85;11.13;;;;;;;-0.92;93.13;96561.91;5040660;28;20426;-78
2023/01/26 02:57:34;;;;;;;26.90;10.10;;;;;;;-0.86;92.99;96547.56;5032388;28;20421;-80
2023/01/26 03:00:02;;;;;;;31.10;10.95;;;;;;;-0.84;92.68;96553.47;5033161;28;20049;-79
2023/01/26 03:02:29;;;;;;;23.50;9.55;;;;;;;-0.81;92.80;96550.34;5036868;28;20116;-78
2023/01/26 03:04:55;;;;;;;29.73;10.52;;;;;;;-0.84;92.78;96545.44;5037064;28;20074;-80
2023/01/26 03:07:22;;;;;;;27.58;11.00;;;;;;;-0.84;92.34;96536.63;5031039;28;20053;-78
2023/01/26 03:09:48;;;;;;;24.10;9.30;;;;;;;-0.82;92.42;96529.19;5034646;28;20048;-79
2023/01/26 03:12:15;;;;;;;29.33;10.07;;;;;;;-0.80;92.63;96532.44;5032999;28;20433;-78
2023/01/26 03:14:41;;;;;;;29.70;11.93;;;;;;;-0.83;92.67;96531.06;5033138;28;20048;-78
2023/01/26 03:17:09;;;;;;;29.48;10.38;;;;;;;-0.85;92.60;96533.16;5036676;28;20525;-80
2023/01/26 03:27:49;;;;;;;26.13;10.10;;;;;;;-0.82;92.63;96532.69;5032939;28;20075;-78
2023/01/26 03:30:18;;;;;;;24.95;10.15;;;;;;;-0.88;92.57;96528.28;5031879;28;20057;-82
2023/01/26 03:32:46;;;;;;;25.77;9.77;;;;;;;-0.89;92.71;96521.34;5037849;28;20034;-78
2023/01/26 03:35:14;;;;;;;27.35;11.15;;;;;;;-0.87;92.52;96524.56;5038916;28;20510;-79
2023/01/26 03:37:42;;;;;;;25.35;10.32;;;;;;;-0.86;92.44;96531.53;5032589;28;20136;-79
2023/01/26 03:56:33;;;;;;;24.83;9.00;;;;;;;-0.82;90.76;96530.00;4992894;28;20117;-81
2023/01/26 03:59:06;;;;;;;23.55;9.27;;;;;;;-0.83;90.04;96531.06;4991075;28;20089;-81
2023/01/26 04:01:34;;;;;;;23.38;8.77;;;;;;;-0.75;90.00;96531.69;5032984;28;20047;-80
2023/01/26 04:09:33;;;;;;;24.30;8.65;;;;;;;-0.73;89.87;96529.59;5035839;28;20107;-84
2023/01/26 04:12:00;;;;;;;26.13;9.50;;;;;;;-0.72;89.63;96526.69;5044858;28;20033;-78
2023/01/26 04:22:43;;;;;;;24.75;10.07;;;;;;;-1.01;89.19;96525.91;5035618;28;20179;-81
2023/01/26 04:25:12;;;;;;;24.50;9.57;;;;;;;-0.99;89.00;96521.16;5042613;28;20045;-80
2023/01/26 04:27:40;;;;;;;22.55;8.75;;;;;;;-0.99;89.49;96521.16;5035235;28;20049;-79
2023/01/26 04:30:08;;;;;;;26.02;9.55;;;;;;;-0.99;89.72;96517.63;5033883;28;20048;-79
2023/01/26 04:32:35;;;;;;;27.83;9.48;;;;;;;-0.99;89.86;96518.47;5033991;28;20049;-81
2023/01/26 04:35:03;;;;;;;27.17;9.80;;;;;;;-0.92;90.02;96512.97;5033006;28;20049;-79
2023/01/26 04:37:29;;;;;;;23.52;9.18;;;;;;;-0.97;90.30;96512.88;5039418;28;20041;-80
2023/01/26 04:39:56;;;;;;;24.25;9.05;;;;;;;-0.89;90.65;96507.97;5043858;28;20049;-80
2023/01/26 04:42:23;;;;;;;25.00;9.65;;;;;;;-0.90;90.76;96509.00;5032743;28;20056;-79
2023/01/26 04:44:50;;;;;;;25.50;9.85;;;;;;;-0.87;90.70;96503.19;5032649;28;20065;-80
2023/01/26 04:47:16;;;;;;;25.67;9.80;;;;;;;-0.94;90.52;96507.88;5032457;28;20430;-81
2023/01/26 04:49:43;;;;;;;24.73;10.00;;;;;;;-0.94;90.42;96502.53;5031914;28;20052;-84
2023/01/26 04:52:10;;;;;;;24.48;9.90;;;;;;;-0.88;90.01;96506.91;5031887;28;20041;-79
2023/01/26 04:54:37;;;;;;;25.15;10.85;;;;;;;-0.85;89.96;96509.09;5032494;28;20052;-81
2023/01/26 04:57:04;;;;;;;23.20;8.77;;;;;;;-0.77;89.89;96502.53;5031838;28;20042;-79
2023/01/26 04:59:30;;;;;;;28.60;10.90;;;;;;;-0.82;90.04;96505.94;5033145;28;20049;-78
2023/01/26 05:01:57;;;;;;;28.25;10.60;;;;;;;-0.74;90.37;96509.25;5031454;28;20050;-79
2023/01/26 05:04:24;;;;;;;28.85;10.80;;;;;;;-0.76;90.41;96501.47;5031447;28;20054;-79
2023/01/26 05:06:50;;;;;;;27.48;11.00;;;;;;;-0.84;90.63;96508.03;5031736;28;20053;-78
2023/01/26 05:09:18;;;;;;;28.00;11.10;;;;;;;-0.81;90.61;96507.56;5037731;28;20049;-78
2023/01/26 05:11:45;;;;;;;27.92;10.50;;;;;;;-0.76;90.57;96504.16;5034220;28;20052;-81
2023/01/26 05:14:11;;;;;;;25.90;10.73;;;;;;;-0.77;90.51;96499.88;5030670;28;20038;-78
2023/01/26 05:16:37;;;;;;;28.05;10.38;;;;;;;-0.73;90.91;96502.84;5031544;28;20041;-80
2023/01/26 05:19:04;;;;;;;28.05;10.10;;;;;;;-0.76;91.14;96506.84;5036747;28;20049;-80
2023/01/26 05:21:30;;;;;;;24.95;9.10;;;;;;;-0.71;91.34;96495.41;5032246;28;20502;-80
2023/01/26 05:23:57;;;;;;;24.48;9.50;;;;;;;-0.70;91.36;96502.38;5031400;28;20637;-79
2023/01/26 05:26:25;;;;;;;23.45;9.32;;;;;;;-0.67;91.46;96508.06;5031599;28;20532;-79
2023/01/26 05:28:51;;;;;;;28.25;11.07;;;;;;;-0.68;91.46;96505.59;5030976;28;20047;-78
2023/01/26 05:31:18;;;;;;;28.05;10.77;;;;;;;-0.63;91.11;96503.81;5041390;28;20049;-80
2023/01/26 05:33:44;;;;;;;27.40;10.45;;;;;;;-0.60;90.96;96497.19;5034974;28;20053;-79
2023/01/26 05:36:11;;;;;;;25.15;9.80;;;;;;;-0.58;90.79;96500.41;5037536;28;20052;-79
2023/01/26 05:38:37;;;;;;;26.52;10.27;;;;;;;-0.56;90.59;96504.50;5037736;28;20045;-80
2023/01/26 05:41:03;;;;;;;26.23;10.70;;;;;;;-0.56;90.70;96501.81;5037628;28;20074;-79
2023/01/26 05:43:31;;;;;;;25.98;10.60;;;;;;;-0.54;90.64;96506.91;5034515;28;20533;-78
2023/01/26 05:45:58;;;;;;;26.25;10.20;;;;;;;-0.54;90.65;96509.59;5035026;28;20046;-80
2023/01/26 05:48:24;;;;;;;28.75;9.88;;;;;;;-0.53;90.56;96509.34;5009040;28;1043699;-77
2023/01/26 05:50:51;;;;;;;25.40;10.40;;;;;;;-0.55;89.45;96494.59;5051818;28;20045;-78
2023/01/26 05:53:18;;;;;;;22.10;9.60;;;;;;;-0.66;89.67;96503.53;5038555;28;20045;-79
2023/01/26 05:55:44;;;;;;;29.98;11.90;;;;;;;-0.69;89.48;96498.63;5036639;28;20124;-80
2023/01/26 05:58:11;;;;;;;29.00;9.85;;;;;;;-0.73;89.59;96500.16;5042873;28;20044;-79
2023/01/26 06:00:39;;;;;;;24.35;9.77;;;;;;;-1.01;90.87;96495.69;5036257;28;20506;-79
2023/01/26 06:03:05;;;;;;;28.42;10.52;;;;;;;-1.03;90.83;96509.31;5036176;28;20045;-81
2023/01/26 06:05:32;;;;;;;26.95;10.00;;;;;;;-0.97;90.33;96508.34;5037227;28;20050;-82
2023/01/26 06:07:58;;;;;;;29.10;10.82;;;;;;;-0.90;90.36;96503.66;5036534;28;20045;-85
2023/01/26 06:10:25;;;;;;;27.15;9.75;;;;;;;-0.82;90.45;96518.50;5039944;28;20045;-79
2023/01/26 06:12:51;;;;;;;27.92;10.27;;;;;;;-0.77;90.22;96509.75;5036384;28;20045;-79
2023/01/26 06:15:18;;;;;;;27.67;10.50;;;;;;;-0.77;89.59;96504.41;5035629;28;20068;-79
2023/01/26 06:17:46;;;;;;;25.02;9.80;;;;;;;-0.76;89.12;96508.69;5036752;28;20049;-79
2023/01/26 06:20:13;;;;;;;28.50;10.40;;;;;;;-0.82;89.13;96511.28;5036006;28;20041;-81
2023/01/26 06:22:40;;;;;;;31.23;10.52;;;;;;;-0.86;89.73;96515.50;5036391;28;20049;-81
2023/01/26 06:25:06;;;;;;;24.83;10.27;;;;;;;-0.77;89.47;96513.25;5037336;28;20044;-81
2023/01/26 06:27:34;;;;;;;31.38;10.38;;;;;;;-0.73;89.50;96506.34;5038401;28;20054;-84
2023/01/26 06:30:01;;;;;;;27.35;10.60;;;;;;;-0.73;89.55;96508.19;5047164;28;20061;-84
2023/01/26 06:32:28;;;;;;;26.42;10.35;;;;;;;-0.74;89.56;96506.56;5036918;28;20053;-82
2023/01/26 06:34:56;;;;;;;30.40;10.93;;;;;;;-0.74;89.87;96507.38;5037820;28;20049;-83
2023/01/26 06:37:22;;;;;;;28.25;11.32;;;;;;;-0.89;89.58;96509.81;5035287;28;20064;-81
2023/01/26 06:39:49;;;;;;;33.08;11.13;;;;;;;-0.86;89.60;96504.78;5040890;28;20414;-78
2023/01/26 06:42:15;;;;;;;26.85;10.75;;;;;;;-0.83;89.76;96504.31;5037194;28;20182;-79
2023/01/26 06:44:42;;;;;;;28.52;10.88;;;;;;;-0.84;89.66;96497.31;5041378;28;20052;-79
2023/01/26 06:47:08;;;;;;;27.92;11.05;;;;;;;-0.96;89.33;96504.63;5034962;28;20049;-81
2023/01/26 06:49:34;;;;;;;28.00;11.52;;;;;;;-0.91;89.67;96506.56;5036291;28;20048;-81
2023/01/26 06:52:05;;;;;;;27.63;11.27;;;;;;;-0.89;89.44;96505.28;5036026;28;20041;-79
2023/01/26 06:54:31;;;;;;;27.00;10.60;;;;;;;-0.85;89.41;96506.41;5036718;28;20056;-79
2023/01/26 06:56:58;;;;;;;27.42;11.15;;;;;;;-0.80;89.44;96495.00;5036535;28;20132;-78
2023/01/26 06:59:24;;;;;;;29.75;11.35;;;;;;;-0.81;89.89;96499.53;5036068;28;20052;-84
2023/01/26 07:01:51;;;;;;;30.88;11.30;;;;;;;-0.82;90.22;96497.09;5045095;28;20046;-81
2023/01/26 07:04:17;;;;;;;25.55;10.10;;;;;;;-0.81;89.93;96496.06;5035609;28;20049;-79
2023/01/26 07:06:44;;;;;;;29.80;11.15;;;;;;;-0.78;89.23;96495.56;5035142;28;20056;-81
2023/01/26 07:09:12;;;;;;;27.25;10.35;;;;;;;-0.76;88.85;96498.00;5034894;28;20056;-81
2023/01/26 07:11:38;;;;;;;29.50;9.82;;;;;;;-0.76;89.02;96498.00;5038002;28;20523;-80
2023/01/26 07:14:05;;;;;;;26.42;10.93;;;;;;;-0.81;89.09;96496.84;5035100;28;20053;-81
2023/01/26 07:16:31;;;;;;;29.95;11.98;;;;;;;-0.82;89.19;96505.94;5045182;28;20049;-80
2023/01/26 07:18:58;;;;;;;32.67;11.45;;;;;;;-0.74;89.51;96503.91;5043931;28;20052;-81
2023/01/26 07:21:24;;;;;;;26.20;11.18;;;;;;;-0.74;89.87;96499.38;5035717;28;20049;-81
2023/01/26 07:23:52;;;;;;;28.30;11.00;;;;;;;-0.70;89.94;96497.03;5045274;28;20084;-80
2023/01/26 07:26:20;;;;;;;24.42;9.63;;;;;;;-0.72;89.80;96497.28;5035690;28;20430;-81
2023/01/26 07:28:46;;;;;;;26.85;10.70;;;;;;;-0.77;89.71;96496.38;5042804;28;20049;-82
2023/01/26 07:31:13;;;;;;;25.02;9.57;;;;;;;-0.73;89.45;96497.50;5037805;28;20088;-80
2023/01/26 07:33:40;;;;;;;25.70;10.98;;;;;;;-0.73;89.24;96493.00;5035575;28;20056;-80
2023/01/26 07:36:07;;;;;;;30.55;10.90;;;;;;;-0.84;89.77;96500.00;5033982;28;20049;-79
2023/01/26 07:38:34;;;;;;;26.88;10.32;;;;;;;-0.78;89.98;96495.56;5040075;28;20037;-80
2023/01/26 07:41:06;;;;;;;29.80;11.45;;;;;;;-0.94;90.04;96491.84;5049552;28;20041;-83
2023/01/26 07:43:34;;;;;;;28.67;11.50;;;;;;;-1.22;91.02;96481.16;5035143;28;20044;-83
2023/01/26 07:46:01;;;;;;;29.60;11.98;;;;;;;-1.45;91.80;96485.56;5047825;28;20052;-85
2023/01/26 07:48:28;;;;;;;29.35;10.45;;;;;;;-1.37;92.34;96481.69;5043684;28;20120;-81
2023/01/26 07:50:58;;;;;;;30.50;10.98;;;;;;;-1.18;91.32;96480.44;5044311;28;20041;-79
2023/01/26 07:53:26;;;;;;;26.45;10.30;;;;;;;-1.09;91.01;96492.38;5035129;28;20048;-79
2023/01/26 07:55:53;;;;;;;26.30;10.40;;;;;;;-1.24;90.98;96483.28;5036410;28;20510;-84
2023/01/26 07:58:20;;;;;;;25.70;9.85;;;;;;;-1.23;90.92;96484.91;5034694;28;20054;-81
2023/01/26 08:00:47;;;;;;;27.23;9.98;;;;;;;-1.39;90.88;96492.63;5035773;28;20049;-80
2023/01/26 08:03:14;;;;;;;26.48;10.68;;;;;;;-1.26;90.87;96488.03;5034761;28;20060;-80
2023/01/26 08:05:42;;;;;;;25.40;10.65;;;;;;;-1.20;90.27;96484.41;5035565;28;20053;-79
2023/01/26 08:08:09;;;;;;;29.70;11.32;;;;;;;-1.21;90.26;96480.91;5034907;28;20049;-78
2023/01/26 08:10:35;;;;;;;23.85;9.90;;;;;;;-1.21;90.22;96483.59;5038140;28;20049;-83
2023/01/26 08:13:02;;;;;;;30.70;10.23;;;;;;;-1.15;90.08;96484.50;5035144;28;20053;-81
2023/01/26 08:15:29;;;;;;;27.27;10.35;;;;;;;-1.06;90.10;96483.06;5047204;28;20053;-81
2023/01/26 08:17:57;;;;;;;32.25;10.75;;;;;;;-1.08;90.42;96480.63;5039940;28;20053;-78
2023/01/26 08:20:24;;;;;;;24.23;9.70;;;;;;;-1.00;90.35;96482.09;5040189;28;20084;-80
2023/01/26 08:22:50;;;;;;;24.58;10.18;;;;;;;-1.23;90.46;96476.88;5039419;28;20046;-79
2023/01/26 08:25:17;;;;;;;26.95;10.52;;;;;;;-1.12;90.51;96478.69;5042441;28;20059;-79
2023/01/26 08:27:43;;;;;;;30.80;9.88;;;;;;;-1.18;89.93;96469.75;5037684;28;20041;-80
2023/01/26 08:30:11;;;;;;;26.77;10.85;;;;;;;-1.17;90.17;96470.56;5045463;28;20053;-79
2023/01/26 08:32:37;;;;;;;27.23;10.18;;;;;;;-1.18;90.19;96466.28;5039714;28;20052;-81
2023/01/26 08:35:06;;;;;;;30.30;9.80;;;;;;;-1.25;90.27;96468.28;5036585;28;20502;-81
2023/01/26 08:37:33;;;;;;;25.23;9.57;;;;;;;-1.18;90.45;96476.97;5042999;28;20045;-82
2023/01/26 08:40:00;;;;;;;23.00;9.65;;;;;;;-1.14;90.86;96470.09;5037529;28;20049;-79
2023/01/26 08:42:26;;;;;;;26.10;10.07;;;;;;;-1.06;90.97;96469.69;5037671;28;20041;-78
2023/01/26 08:44:52;;;;;;;22.58;9.77;;;;;;;-0.92;90.39;96460.31;5038463;28;20102;-83
2023/01/26 08:47:19;;;;;;;22.88;8.98;;;;;;;-0.81;90.13;96464.78;5041825;28;20053;-83
2023/01/26 08:49:45;;;;;;;25.55;9.80;;;;;;;-0.73;89.08;96466.25;5040246;28;20501;-78
2023/01/26 08:52:13;;;;;;;24.35;10.55;;;;;;;-0.69;88.21;96469.22;5032915;28;20410;-80
2023/01/26 08:54:40;;;;;;;24.95;9.13;;;;;;;-0.72;87.59;96464.38;5031713;28;20045;-80
2023/01/26 08:57:06;;;;;;;25.75;9.27;;;;;;;-0.65;87.46;96462.34;5030561;28;20044;-78
2023/01/26 08:59:32;;;;;;;21.75;9.10;;;;;;;-0.62;86.78;96468.03;5031444;28;20049;-81
2023/01/26 09:01:59;;;;;;;22.92;8.88;;;;;;;-0.53;86.76;96465.72;5039865;28;20053;-77
2023/01/26 09:04:26;;;;;;;21.27;8.57;;;;;;;-0.69;85.85;96466.56;5031184;28;20042;-80
2023/01/26 09:06:53;;;;;;;22.35;9.65;;;;;;;-0.83;86.77;96466.09;5034839;28;20467;-80
2023/01/26 09:09:21;;;;;;;26.63;9.52;;;;;;;-0.74;87.19;96463.78;5034792;28;20041;-79
2023/01/26 09:11:48;;;;;;;24.30;9.80;;;;;;;-0.73;87.30;96470.75;5039162;28;20049;-80
2023/01/26 09:14:14;;;;;;;25.52;9.50;;;;;;;-0.72;87.28;96467.06;5035221;28;20725;-80
2023/01/26 09:16:40;;;;;;;23.00;8.57;;;;;;;-0.70;86.96;96470.28;5035550;28;20056;-78
2023/01/26 09:19:07;;;;;;;24.27;8.98;;;;;;;-0.71;86.96;96468.66;5044285;28;20062;-80
2023/01/26 09:21:34;;;;;;;22.35;9.43;;;;;;;-1.15;87.02;96479.16;5047410;28;20048;-81
2023/01/26 09:24:01;;;;;;;20.75;8.55;;;;;;;-1.31;87.15;96480.72;5038953;28;20054;-80
2023/01/26 09:26:29;;;;;;;21.73;8.63;;;;;;;-1.20;88.15;96476.38;5035055;28;20060;-82
2023/01/26 09:28:55;;;;;;;22.98;8.98;;;;;;;-1.40;87.70;96483.00;5039007;28;20045;-81
2023/01/26 09:31:22;;;;;;;24.42;9.88;;;;;;;-1.44;89.47;96487.19;5038643;28;20088;-79
2023/01/26 09:33:49;;;;;;;21.73;8.98;;;;;;;-1.15;88.86;96489.84;5049216;28;20052;-80
2023/01/26 09:36:16;;;;;;;22.10;9.35;;;;;;;-1.03;88.17;96487.94;5049770;28;20052;-83
2023/01/26 09:38:42;;;;;;;25.88;9.55;;;;;;;-0.89;88.08;96483.91;5058461;28;20048;-82
2023/01/26 09:41:23;;;;;;;24.42;10.20;;;;;;;-0.97;88.08;96486.97;5052460;28;20041;-84
2023/01/26 09:43:54;;;;;;;27.50;10.77;;;;;;;-1.04;90.16;96486.31;5049502;28;20046;-81
2023/01/26 09:46:23;;;;;;;23.25;9.38;;;;;;;-0.97;90.19;96484.28;5038011;28;20052;-80
2023/01/26 09:49:02;;;;;;;22.00;8.90;;;;;;;-0.83;89.87;96477.59;5054357;28;20514;-84
2023/01/26 09:51:33;;;;;;;25.23;9.27;;;;;;;-0.95;88.13;96484.84;5041452;28;20041;-82
2023/01/26 09:54:04;;;;;;;25.17;9.15;;;;;;;-0.85;87.82;96482.34;5038407;28;20045;-82
2023/01/26 09:56:32;;;;;;;28.02;10.48;;;;;;;-0.92;88.00;96480.91;5043617;28;20056;-80
2023/01/26 09:59:05;;;;;;;25.20;9.85;;;;;;;-0.80;88.34;96481.63;5043024;28;20144;-79
2023/01/26 10:01:38;;;;;;;27.80;10.60;;;;;;;-0.74;88.57;96475.31;5039576;28;20060;-80
2023/01/26 10:04:14;;;;;;;24.48;9.25;;;;;;;-0.68;88.39;96478.88;5045012;28;20049;-83
2023/01/26 10:06:41;;;;;;;27.30;10.70;;;;;;;-0.76;88.36;96476.59;5035113;28;20489;-82
2023/01/26 10:09:15;;;;;;;29.90;10.38;;;;;;;-0.80;89.07;96477.09;5033546;28;20498;-81
2023/01/26 10:11:45;;;;;;;23.67;9.10;;;;;;;-0.79;89.00;96469.88;5045458;28;20042;-81
2023/01/26 10:14:15;;;;;;;25.85;9.18;;;;;;;-0.73;88.83;96460.91;5033786;28;20041;-81
2023/01/26 10:16:45;;;;;;;22.48;8.75;;;;;;;-0.64;88.42;96461.28;5042734;28;20049;-78
2023/01/26 10:19:16;;;;;;;22.90;9.23;;;;;;;-0.81;87.56;96459.44;5033032;28;20469;-81
2023/01/26 10:21:47;;;;;;;22.25;9.45;;;;;;;-0.71;87.61;96457.97;5034375;28;20425;-81
2023/01/26 10:24:22;;;;;;;27.00;10.00;;;;;;;-0.70;87.59;96448.91;5033670;28;20044;-80
2023/01/26 10:26:52;;;;;;;24.58;9.93;;;;;;;-0.72;87.00;96448.34;5050578;28;20076;-79
2023/01/26 10:29:22;;;;;;;29.17;9.68;;;;;;;-0.80;87.71;96455.69;5050168;28;20529;-79
2023/01/26 10:31:48;;;;;;;24.48;8.98;;;;;;;-0.87;88.13;96443.56;5034497;28;20048;-82
2023/01/26 10:34:17;;;;;;;25.85;9.30;;;;;;;-0.92;89.62;96446.94;5033457;28;20065;-83
2023/01/26 10:36:46;;;;;;;21.85;9.43;;;;;;;-0.74;89.28;96442.41;5034076;28;20071;-83
2023/01/26 10:39:14;;;;;;;22.10;8.98;;;;;;;-0.81;89.29;96445.25;5033068;28;20057;-81
2023/01/26 10:41:55;;;;;;;26.70;8.85;;;;;;;-0.77;90.27;96450.94;5036590;28;20057;-80
2023/01/26 10:44:34;;;;;;;23.52;8.18;;;;;;;-0.64;89.04;96451.41;5041411;28;20049;-80
2023/01/26 10:47:14;;;;;;;23.73;8.85;;;;;;;-0.59;89.10;96450.66;5034242;28;20509;-79
2023/01/26 10:49:41;;;;;;;25.52;9.63;;;;;;;-0.56;88.84;96451.00;5047329;28;20041;-80
2023/01/26 10:52:16;;;;;;;25.67;9.52;;;;;;;-0.51;88.73;96452.13;5035683;28;20056;-85
2023/01/26 10:54:43;;;;;;;22.20;8.60;;;;;;;-0.45;88.49;96441.25;5036343;28;20037;-79
2023/01/26 10:57:26;;;;;;;25.35;9.27;;;;;;;-0.36;88.41;96439.78;5044356;28;20049;-80
2023/01/26 10:59:56;;;;;;;24.95;9.93;;;;;;;-0.28;88.13;96425.97;5043512;28;20037;-80
2023/01/26 11:02:26;;;;;;;22.92;9.60;;;;;;;-0.28;86.71;96431.31;5035368;28;20041;-83
2023/01/26 11:05:21;;;;;;;20.73;8.15;;;;;;;-0.30;86.16;96437.97;5033502;28;20080;-81
2023/01/26 11:07:49;;;;;;;19.58;8.38;;;;;;;-0.19;85.63;96438.94;5023451;28;20049;-81
2023/01/26 11:10:19;;;;;;;20.50;7.68;;;;;;;-0.13;85.60;96435.25;5034691;28;20049;-82
2023/01/26 11:12:45;;;;;;;22.23;8.10;;;;;;;-0.12;85.49;96439.53;5034221;28;20045;-81
2023/01/26 11:15:18;;;;;;;22.40;8.43;;;;;;;-0.15;85.32;96437.38;5033517;28;20412;-81
2023/01/26 11:17:51;;;;;;;21.20;8.65;;;;;;;-0.09;85.19;96434.53;5033690;28;20506;-79
2023/01/26 11:20:42;;;;;;;22.60;8.93;;;;;;;-0.12;85.06;96431.53;5033057;28;20378;-80
2023/01/26 11:23:15;;;;;;;22.55;8.60;;;;;;;-0.12;84.55;96434.19;5027989;28;20506;-78
2023/01/26 11:25:53;;;;;;;20.05;7.80;;;;;;;-0.04;84.15;96434.59;5033703;28;20049;-80
2023/01/26 11:28:34;;;;;;;23.52;9.05;;;;;;;0.02;84.33;96426.63;5036576;28;20052;-81
2023/01/26 11:31:15;;;;;;;24.00;8.82;;;;;;;-0.01;84.26;96431.38;5037632;28;20421;-78
2023/01/26 11:33:50;;;;;;;22.05;9.77;;;;;;;-0.05;84.11;96424.94;5038918;28;20041;-81
2023/01/26 11:36:26;;;;;;;22.92;9.40;;;;;;;-0.22;84.89;96423.34;5034060;28;20052;-80
2023/01/26 11:39:02;;;;;;;22.75;9.68;;;;;;;-0.36;85.20;96422.91;5032764;28;20068;-80
2023/01/26 11:41:42;;;;;;;22.42;9.90;;;;;;;-0.37;84.82;96422.09;5036001;28;20498;-79
2023/01/26 11:44:50;;;;;;;21.10;9.20;;;;;;;-0.41;85.27;96410.28;5032343;28;20049;-81
2023/01/26 11:47:32;;;;;;;26.38;10.55;;;;;;;-0.52;86.16;96424.56;4990011;28;20443;-78
2023/01/26 11:50:17;;;;;;;22.70;9.95;;;;;;;-0.58;86.68;96414.84;5032057;28;20445;-78
2023/01/26 11:52:52;;;;;;;23.90;10.35;;;;;;;-0.57;86.38;96419.16;5033243;28;20445;-82
2023/01/26 11:55:29;;;;;;;21.48;9.27;;;;;;;-0.43;85.00;96411.56;5035498;28;20049;-79
2023/01/26 11:58:12;;;;;;;23.90;10.73;;;;;;;-0.44;85.12;96415.31;5035824;28;20446;-80
2023/01/26 12:00:41;;;;;;;26.77;11.53;;;;;;;-0.41;85.62;96412.16;5032515;28;20048;-80
2023/01/26 12:03:20;;;;;;;25.33;10.65;;;;;;;-0.40;85.88;96406.53;5041372;28;20634;-80
2023/01/26 12:05:52;;;;;;;24.98;10.35;;;;;;;-0.52;85.66;96403.19;5037643;28;20052;-81
2023/01/26 12:08:23;;;;;;;25.63;10.10;;;;;;;-0.50;85.18;96398.38;5031409;28;20061;-80
2023/01/26 12:10:55;;;;;;;30.65;11.68;;;;;;;-0.52;85.12;96397.81;5035201;28;20414;-79
2023/01/26 12:13:33;;;;;;;24.45;10.52;;;;;;;-0.52;85.60;96403.19;5031470;28;20060;-80